createdAt,value
2023-02-24T00:02:06.764Z,85.00
2023-02-24T00:08:01.454Z,93.10
2023-02-24T00:13:47.000Z,81.60
2023-02-24T00:19:30.106Z,80.70
2023-02-24T00:25:06.015Z,75.10
2023-02-24T00:30:40.116Z,80.00
2023-02-24T00:36:53.529Z,82.00
2023-02-24T00:42:28.768Z,76.40
2023-02-24T00:48:55.116Z,79.20
2023-02-24T01:02:11.854Z,82.20
2023-02-24T01:08:21.786Z,87.00
2023-02-24T01:14:26.543Z,85.60
2023-02-24T01:19:34.805Z,79.30
2023-02-24T01:25:32.509Z,75.10
2023-02-24T01:31:39.719Z,81.30
2023-02-24T01:37:32.260Z,75.60
2023-02-24T01:43:15.608Z,72.50
2023-02-24T01:48:41.914Z,78.50
2023-02-24T01:55:10.536Z,76.30
2023-02-24T02:01:21.022Z,79.40
2023-02-24T02:07:57.630Z,84.60
2023-02-24T02:13:36.290Z,81.10
2023-02-24T02:19:55.961Z,79.40
2023-02-24T02:26:12.824Z,81.30
2023-02-24T02:32:46.447Z,81.20
2023-02-24T02:38:28.686Z,73.80
2023-02-24T02:44:22.454Z,79.20
2023-02-24T02:50:25.798Z,73.60
2023-02-24T03:02:34.608Z,81.40
2023-02-24T03:08:43.688Z,85.60
2023-02-24T03:13:56.136Z,76.20
2023-02-24T03:19:45.723Z,82.40
2023-02-24T03:25:43.145Z,74.10
2023-02-24T03:31:35.672Z,71.40
2023-02-24T03:37:35.945Z,76.10
2023-02-24T03:43:18.335Z,70.50
2023-02-24T03:49:12.881Z,65.70
2023-02-24T03:55:16.915Z,161.80
2023-02-24T04:01:02.644Z,80.10
2023-02-24T04:07:05.892Z,48.10
2023-02-24T04:13:04.807Z,44.70
2023-02-24T04:25:18.829Z,38.30
2023-02-24T04:31:43.237Z,26.10
2023-02-24T04:37:45.462Z,24.80
2023-02-24T04:43:25.679Z,21.70
2023-02-24T04:50:12.720Z,22.40
2023-02-24T04:56:04.494Z,17.50
2023-02-24T05:01:46.188Z,17.60
2023-02-24T05:07:35.711Z,18.60
2023-02-24T05:14:09.073Z,131.10
2023-02-24T05:20:38.326Z,16.50
2023-02-24T05:25:44.998Z,16.20
2023-02-24T05:31:30.287Z,16.50
2023-02-24T05:37:27.517Z,16.40
2023-02-24T05:42:58.536Z,15.20
2023-02-24T05:48:24.726Z,12.60
2023-02-24T05:54:25.363Z,13.10
2023-02-24T06:00:22.980Z,12.50
2023-02-24T06:06:27.445Z,14.80
2023-02-24T06:12:31.738Z,16.80
2023-02-24T06:18:12.056Z,17.20
2023-02-24T06:24:28.655Z,17.20
2023-02-24T06:30:08.562Z,14.50
2023-02-24T06:35:46.851Z,19.90
2023-02-24T06:41:55.681Z,18.00
2023-02-24T06:47:29.100Z,15.50
2023-02-24T06:52:46.297Z,17.20
2023-02-24T06:57:57.693Z,20.80
2023-02-24T07:03:26.148Z,18.50
2023-02-24T07:09:24.674Z,17.60
2023-02-24T07:15:12.748Z,19.00
2023-02-24T07:20:52.114Z,27.40
2023-02-24T07:26:30.724Z,17.50
2023-02-24T07:32:10.551Z,15.20
2023-02-24T07:38:35.436Z,18.30
2023-02-24T07:44:07.825Z,15.50
2023-02-24T07:50:21.762Z,17.10
2023-02-24T07:55:46.776Z,16.70
2023-02-24T08:01:09.012Z,14.20
2023-02-24T08:07:18.397Z,13.50
2023-02-24T08:13:19.653Z,19.00
2023-02-24T08:19:43.034Z,19.20
2023-02-24T08:25:46.806Z,14.70
2023-02-24T08:32:02.560Z,14.50
2023-02-24T08:37:47.137Z,16.30
2023-02-24T08:43:50.985Z,13.90
2023-02-24T08:50:06.926Z,13.70
2023-02-24T08:56:20.094Z,15.80
2023-02-24T09:02:09.296Z,13.20
2023-02-24T09:08:08.983Z,14.30
2023-02-24T09:20:43.402Z,10.20
2023-02-24T09:26:18.229Z,8.80
2023-02-24T09:32:13.251Z,11.20
2023-02-24T09:38:00.565Z,7.30
2023-02-24T09:43:56.481Z,8.30
2023-02-24T09:50:03.520Z,9.30
2023-02-24T09:56:11.770Z,10.00
2023-02-24T10:02:20.508Z,11.00
2023-02-24T10:08:07.799Z,10.20
2023-02-24T10:14:18.661Z,13.30
2023-02-24T10:19:35.970Z,13.90
2023-02-24T10:25:28.682Z,12.10
2023-02-24T10:31:47.203Z,13.20
2023-02-24T10:38:15.307Z,15.30
2023-02-24T10:44:17.344Z,144.20
2023-02-24T10:49:51.036Z,21.80
2023-02-24T11:01:22.900Z,19.60
2023-02-24T11:07:01.033Z,18.30
2023-02-24T11:13:08.002Z,22.00
2023-02-24T11:19:05.475Z,21.10
2023-02-24T11:25:29.791Z,68.70
2023-02-24T11:31:43.075Z,23.20
2023-02-24T11:38:09.333Z,19.20
2023-02-24T11:44:18.733Z,23.40
2023-02-24T11:49:55.715Z,24.30
2023-02-24T11:55:34.955Z,22.30
2023-02-24T12:01:59.468Z,19.30
2023-02-24T13:02:52.396Z,14.70
2023-02-24T13:09:02.143Z,16.90
2023-02-24T13:15:19.337Z,16.20
2023-02-24T13:21:02.507Z,14.80
2023-02-24T13:26:33.781Z,15.70
2023-02-24T13:31:50.438Z,17.00
2023-02-24T13:38:19.627Z,17.90
2023-02-24T13:44:00.091Z,15.00
2023-02-24T13:50:36.543Z,16.50
2023-02-24T13:56:09.262Z,17.40
2023-02-24T14:02:40.593Z,14.80
2023-02-24T14:08:36.514Z,17.70
2023-02-24T14:15:00.947Z,17.50
2023-02-24T14:20:28.564Z,15.80
2023-02-24T14:26:12.894Z,18.10
2023-02-24T14:31:31.671Z,16.50
2023-02-24T14:38:34.839Z,15.00
2023-02-24T14:45:23.074Z,14.70
2023-02-24T14:51:50.220Z,15.80
2023-02-24T15:02:29.484Z,16.30
2023-02-24T15:08:35.084Z,16.60
2023-02-24T15:14:50.273Z,16.50
2023-02-24T15:21:07.761Z,16.10
2023-02-24T15:27:35.204Z,13.40
2023-02-24T15:33:42.121Z,15.30
2023-02-24T15:39:03.021Z,11.60
2023-02-24T15:45:27.206Z,15.10
2023-02-24T15:51:51.756Z,16.10
2023-02-24T16:03:33.706Z,19.10
2023-02-24T16:09:56.085Z,16.30
2023-02-24T16:16:33.101Z,12.70
2023-02-24T16:22:51.064Z,8.60
2023-02-24T16:28:56.764Z,11.70
2023-02-24T16:35:04.852Z,10.20
2023-02-24T16:41:22.661Z,13.00
2023-02-24T16:47:35.995Z,14.70
2023-02-24T16:53:44.408Z,13.20
2023-02-24T16:58:54.623Z,12.60
2023-02-24T17:04:49.069Z,14.80
2023-02-24T17:10:26.883Z,14.20
2023-02-24T17:15:41.300Z,18.00
2023-02-24T17:21:11.248Z,15.40
2023-02-24T17:27:12.116Z,15.50
2023-02-24T17:33:05.200Z,15.10
2023-02-24T17:38:43.723Z,16.70
2023-02-24T17:44:49.147Z,17.50
2023-02-24T17:50:13.551Z,19.30
2023-02-24T17:55:31.683Z,14.90
2023-02-24T18:00:35.396Z,16.80
2023-02-24T18:06:21.093Z,15.90
2023-02-24T18:11:38.203Z,17.30
2023-02-24T18:16:42.152Z,19.50
2023-02-24T18:22:29.623Z,15.90
2023-02-24T18:28:12.457Z,16.40
2023-02-24T18:34:05.597Z,16.40
2023-02-24T18:40:00.855Z,14.60
2023-02-24T18:45:34.331Z,15.00
2023-02-24T18:51:00.002Z,18.90
2023-02-24T18:56:50.733Z,18.90
2023-02-24T19:02:47.594Z,17.70
2023-02-24T19:14:00.035Z,17.70
2023-02-24T19:19:23.035Z,19.50
2023-02-24T19:24:46.182Z,19.30
2023-02-24T19:30:55.355Z,17.70
2023-02-24T19:37:00.849Z,20.90
2023-02-24T19:42:48.829Z,19.70
2023-02-24T19:48:12.084Z,18.60
2023-02-24T19:54:19.212Z,19.60
2023-02-24T20:02:44.884Z,21.30
2023-02-24T20:08:00.741Z,19.60
2023-02-24T20:13:05.856Z,115.80
2023-02-24T20:18:12.329Z,20.30
2023-02-24T20:23:46.300Z,19.80
2023-02-24T20:29:33.366Z,21.80
2023-02-24T20:35:06.244Z,20.20
2023-02-24T20:41:11.497Z,24.50
2023-02-24T20:46:37.798Z,20.20
2023-02-24T20:51:45.361Z,29.50
2023-02-24T20:57:50.299Z,28.00
2023-02-24T21:03:56.075Z,70.20
2023-02-24T21:09:40.186Z,34.70
2023-02-24T21:14:46.947Z,29.10
2023-02-24T21:20:48.695Z,31.80
2023-02-24T21:26:56.043Z,30.80
2023-02-24T21:32:22.830Z,117.50
2023-02-24T21:38:41.147Z,21.90
2023-02-24T21:44:30.641Z,19.60
2023-02-24T21:49:47.385Z,22.70
2023-02-24T21:55:24.107Z,16.90
2023-02-24T22:00:43.797Z,15.70
2023-02-24T23:10:52.253Z,13.20
2023-02-24T23:13:28.567Z,12.60
2023-02-24T23:19:34.888Z,9.50
2023-02-24T23:25:51.974Z,14.00
2023-02-24T23:31:20.365Z,10.10
2023-02-24T23:37:24.665Z,9.70
2023-02-24T23:43:16.291Z,12.00
